Orbital elements of SL-12 R/B
| Launched | 15 September 1988 |
| Flight ended | – |
| Launch site | Tyuratam Missile and Space Center, Kazakhstan (Also known as Baikonur Cosmodrome) |
| Owner | Commonwealth of Independent States (former USSR) |
| NORAD ID | 19537 |
| Alternative names |
AUX MOTOR |
| Date fetched |
Epoch osculation |
Inc. [°] |
Ecc. | RA asc node [hr] |
Arg Peri. [°] |
Mean anom [°] |
Mean motion [rev/day] |
Abs. mag |
| Date fetched |
Epoch osculation |
Inc. [°] |
Ecc. | RA asc node [hr] |
Arg Peri. [°] |
Mean anom [°] |
Mean motion [rev/day] |
Abs. mag |
| 2026 May 04 17:57 | 2026 Apr 30 07:07:28 | 65.1687 | 0.55649 | 22.6189 | 81.1371 | 335.0260 | 4.36753 | 7.743 |
| 2026 May 03 17:57 | 2026 Apr 30 07:07:28 | 65.1687 | 0.55649 | 22.6189 | 81.1371 | 335.0260 | 4.36753 | 7.743 |
| 2026 May 02 17:57 | 2026 Apr 30 07:07:28 | 65.1687 | 0.55649 | 22.6189 | 81.1371 | 335.0260 | 4.36753 | 7.743 |
| 2026 May 01 17:56 | 2026 Apr 30 07:07:28 | 65.1687 | 0.55649 | 22.6189 | 81.1371 | 335.0260 | 4.36753 | 7.743 |
| 2026 Apr 30 17:56 | 2026 Apr 30 07:07:28 | 65.1687 | 0.55649 | 22.6189 | 81.1371 | 335.0260 | 4.36753 | 7.743 |
| 2026 Apr 29 17:57 | 2026 Apr 24 02:45:17 | 65.1699 | 0.55653 | 22.7708 | 81.4587 | 335.0260 | 4.36753 | 7.743 |
| 2026 Apr 28 17:56 | 2026 Apr 24 02:45:17 | 65.1699 | 0.55653 | 22.7708 | 81.4587 | 335.0260 | 4.36753 | 7.743 |
| 2026 Apr 27 17:58 | 2026 Apr 24 02:45:17 | 65.1699 | 0.55653 | 22.7708 | 81.4587 | 335.0260 | 4.36753 | 7.743 |
| 2026 Apr 26 17:58 | 2026 Apr 24 02:45:17 | 65.1699 | 0.55653 | 22.7708 | 81.4587 | 335.0260 | 4.36753 | 7.743 |
| 2026 Apr 25 17:58 | 2026 Apr 24 02:45:17 | 65.1699 | 0.55653 | 22.7708 | 81.4587 | 335.0260 | 4.36753 | 7.743 |
| 2026 Apr 24 17:59 | 2026 Apr 24 02:45:17 | 65.1699 | 0.55653 | 22.7708 | 81.4587 | 335.0260 | 4.36753 | 7.743 |
| 2026 Apr 23 17:57 | 2026 Apr 19 01:51:37 | 65.1710 | 0.55655 | 22.8946 | 81.7192 | 335.0260 | 4.36753 | 7.743 |
| 2026 Apr 22 17:57 | 2026 Apr 19 01:51:37 | 65.1710 | 0.55655 | 22.8946 | 81.7192 | 335.0260 | 4.36753 | 7.743 |
| 2026 Apr 21 17:57 | 2026 Apr 19 01:51:37 | 65.1710 | 0.55655 | 22.8946 | 81.7192 | 335.0260 | 4.36753 | 7.743 |
| 2026 Apr 20 17:57 | 2026 Apr 19 01:51:37 | 65.1710 | 0.55655 | 22.8946 | 81.7192 | 335.0260 | 4.36753 | 7.743 |
| 2026 Apr 19 17:58 | 2026 Apr 19 01:51:37 | 65.1710 | 0.55655 | 22.8946 | 81.7192 | 335.0260 | 4.36753 | 7.743 |
| 2026 Apr 18 17:56 | 2026 Apr 12 21:29:23 | 65.1723 | 0.55657 | 23.0466 | 82.0386 | 335.0260 | 4.36753 | 7.743 |
| 2026 Apr 16 17:57 | 2026 Apr 12 21:29:23 | 65.1723 | 0.55657 | 23.0466 | 82.0386 | 335.0260 | 4.36753 | 7.743 |
| 2026 Apr 14 17:57 | 2026 Apr 12 21:29:23 | 65.1723 | 0.55657 | 23.0466 | 82.0386 | 335.0260 | 4.36753 | 7.743 |
| 2026 Apr 13 17:57 | 2026 Apr 12 21:29:23 | 65.1723 | 0.55657 | 23.0466 | 82.0386 | 335.0260 | 4.36753 | 7.743 |
| 2026 Apr 12 17:57 | 2026 Apr 08 02:05:27 | 65.1735 | 0.55658 | 23.1647 | 82.2879 | 335.0260 | 4.36753 | 7.743 |
| 2026 Apr 11 17:57 | 2026 Apr 08 02:05:27 | 65.1735 | 0.55658 | 23.1647 | 82.2879 | 335.0260 | 4.36753 | 7.743 |
| 2026 Apr 10 17:58 | 2026 Apr 08 02:05:27 | 65.1735 | 0.55658 | 23.1647 | 82.2879 | 335.0260 | 4.36753 | 7.743 |
| 2026 Apr 09 18:01 | 2026 Apr 08 02:05:27 | 65.1735 | 0.55658 | 23.1647 | 82.2879 | 335.0260 | 4.36753 | 7.743 |
| 2026 Apr 08 17:57 | 2026 Apr 08 02:05:27 | 65.1735 | 0.55658 | 23.1647 | 82.2879 | 335.0260 | 4.36753 | 7.743 |
| 2026 Apr 07 17:57 | 2026 Apr 02 03:12:53 | 65.1745 | 0.55659 | 23.3108 | 82.5979 | 335.0260 | 4.36753 | 7.743 |